sensor_id;sensor_type;location;lat;lon;timestamp;pressure;altitude;pressure_sealevel;temperature;humidity
32181;BME280;19172;51.504;3.894;2022-08-23T00:00:06;101294.47;;;29.17;77.98
32181;BME280;19172;51.504;3.894;2022-08-23T00:02:36;101292.13;;;28.98;79.16
32181;BME280;19172;51.504;3.894;2022-08-23T00:05:04;101290.13;;;29.14;79.76
32181;BME280;19172;51.504;3.894;2022-08-23T00:07:41;101292.53;;;29.19;80.06
32181;BME280;19172;51.504;3.894;2022-08-23T00:10:14;101284.47;;;29.17;80.42
32181;BME280;19172;51.504;3.894;2022-08-23T00:12:43;101286.88;;;29.22;80.27
32181;BME280;19172;51.504;3.894;2022-08-23T00:15:16;101290.34;;;29.24;79.90
32181;BME280;19172;51.504;3.894;2022-08-23T00:17:45;101284.03;;;29.23;79.80
32181;BME280;19172;51.504;3.894;2022-08-23T00:20:16;101287.38;;;29.28;79.12
32181;BME280;19172;51.504;3.894;2022-08-23T00:22:44;101283.25;;;29.35;78.84
32181;BME280;19172;51.504;3.894;2022-08-23T00:25:12;101293.28;;;29.35;77.72
32181;BME280;19172;51.504;3.894;2022-08-23T00:27:40;101287.03;;;29.33;77.31
32181;BME280;19172;51.504;3.894;2022-08-23T00:30:10;101284.22;;;29.34;78.21
32181;BME280;19172;51.504;3.894;2022-08-23T00:32:40;101277.38;;;29.42;78.94
32181;BME280;19172;51.504;3.894;2022-08-23T00:35:10;101276.59;;;29.39;78.70
32181;BME280;19172;51.504;3.894;2022-08-23T00:37:39;101276.59;;;29.39;78.89
32181;BME280;19172;51.504;3.894;2022-08-23T00:40:11;101275.50;;;29.42;78.70
32181;BME280;19172;51.504;3.894;2022-08-23T00:42:49;101277.38;;;29.42;78.68
32181;BME280;19172;51.504;3.894;2022-08-23T00:48:42;101277.69;;;29.50;78.61
32181;BME280;19172;51.504;3.894;2022-08-23T00:51:15;101268.66;;;29.49;78.57
32181;BME280;19172;51.504;3.894;2022-08-23T00:53:51;101272.91;;;29.53;78.73
32181;BME280;19172;51.504;3.894;2022-08-23T00:56:23;101275.63;;;29.53;78.55
32181;BME280;19172;51.504;3.894;2022-08-23T00:58:52;101269.88;;;29.58;77.76
32181;BME280;19172;51.504;3.894;2022-08-23T01:01:20;101281.63;;;29.58;77.67
32181;BME280;19172;51.504;3.894;2022-08-23T01:03:54;101276.63;;;29.65;77.11
32181;BME280;19172;51.504;3.894;2022-08-23T01:06:57;101278.06;;;29.58;76.77
32181;BME280;19172;51.504;3.894;2022-08-23T01:09:26;101276.97;;;29.60;77.30
32181;BME280;19172;51.504;3.894;2022-08-23T01:12:04;101274.34;;;29.59;76.31
32181;BME280;19172;51.504;3.894;2022-08-23T01:14:53;101278.91;;;29.58;76.99
32181;BME280;19172;51.504;3.894;2022-08-23T01:17:39;101278.81;;;29.60;76.13
32181;BME280;19172;51.504;3.894;2022-08-23T01:20:17;101270.63;;;29.60;75.77
32181;BME280;19172;51.504;3.894;2022-08-23T01:22:58;101273.38;;;29.60;75.21
32181;BME280;19172;51.504;3.894;2022-08-23T01:25:30;101275.13;;;29.61;75.13
32181;BME280;19172;51.504;3.894;2022-08-23T01:27:59;101275.13;;;29.61;75.24
32181;BME280;19172;51.504;3.894;2022-08-23T01:30:30;101279.25;;;29.54;75.34
32181;BME280;19172;51.504;3.894;2022-08-23T01:33:03;101273.78;;;29.54;75.08
32181;BME280;19172;51.504;3.894;2022-08-23T01:35:41;101280.22;;;29.53;75.32
32181;BME280;19172;51.504;3.894;2022-08-23T01:38:11;101278.03;;;29.45;75.41
32181;BME280;19172;51.504;3.894;2022-08-23T01:40:40;101276.16;;;29.46;74.70
32181;BME280;19172;51.504;3.894;2022-08-23T01:43:09;101269.09;;;29.43;75.21
32181;BME280;19172;51.504;3.894;2022-08-23T01:45:37;101272.59;;;29.45;74.53
32181;BME280;19172;51.504;3.894;2022-08-23T01:48:07;101277.44;;;29.27;74.91
32181;BME280;19172;51.504;3.894;2022-08-23T01:50:35;101274.09;;;29.36;74.85
32181;BME280;19172;51.504;3.894;2022-08-23T01:53:08;101268.84;;;29.33;75.88
32181;BME280;19172;51.504;3.894;2022-08-23T01:55:40;101268.31;;;29.41;75.17
32181;BME280;19172;51.504;3.894;2022-08-23T01:58:09;101263.97;;;29.38;74.38
32181;BME280;19172;51.504;3.894;2022-08-23T02:00:40;101260.47;;;29.36;75.42
32181;BME280;19172;51.504;3.894;2022-08-23T02:03:10;101265.47;;;29.42;74.04
32181;BME280;19172;51.504;3.894;2022-08-23T02:05:39;101266.91;;;29.35;73.73
32181;BME280;19172;51.504;3.894;2022-08-23T02:08:09;101261.25;;;29.38;74.42
32181;BME280;19172;51.504;3.894;2022-08-23T02:10:57;101280.06;;;29.29;74.70
32181;BME280;19172;51.504;3.894;2022-08-23T02:13:26;101278.09;;;29.31;75.51
32181;BME280;19172;51.504;3.894;2022-08-23T02:15:54;101273.53;;;29.31;75.13
32181;BME280;19172;51.504;3.894;2022-08-23T02:18:24;101283.34;;;29.34;74.24
32181;BME280;19172;51.504;3.894;2022-08-23T02:20:52;101286.81;;;29.36;74.36
32181;BME280;19172;51.504;3.894;2022-08-23T02:23:22;101284.97;;;29.36;74.14
32181;BME280;19172;51.504;3.894;2022-08-23T02:25:50;101283.03;;;29.38;73.92
32181;BME280;19172;51.504;3.894;2022-08-23T02:28:22;101279.88;;;29.45;74.55
32181;BME280;19172;51.504;3.894;2022-08-23T02:30:51;101284.47;;;29.44;73.96
32181;BME280;19172;51.504;3.894;2022-08-23T02:33:20;101284.00;;;29.37;75.34
32181;BME280;19172;51.504;3.894;2022-08-23T02:35:48;101286.53;;;29.40;75.64
32181;BME280;19172;51.504;3.894;2022-08-23T02:38:17;101287.28;;;29.42;76.14
32181;BME280;19172;51.504;3.894;2022-08-23T02:40:45;101295.44;;;29.42;77.36
32181;BME280;19172;51.504;3.894;2022-08-23T02:43:16;101286.84;;;29.49;77.96
32181;BME280;19172;51.504;3.894;2022-08-23T02:45:45;101287.94;;;29.46;78.74
32181;BME280;19172;51.504;3.894;2022-08-23T02:48:13;101286.84;;;29.49;79.23
32181;BME280;19172;51.504;3.894;2022-08-23T02:50:51;101289.47;;;29.50;79.12
32181;BME280;19172;51.504;3.894;2022-08-23T02:53:19;101298.53;;;29.51;79.36
32181;BME280;19172;51.504;3.894;2022-08-23T02:55:47;101292.63;;;29.44;79.28
32181;BME280;19172;51.504;3.894;2022-08-23T02:58:15;101294.25;;;29.47;79.20
32181;BME280;19172;51.504;3.894;2022-08-23T03:00:47;101305.06;;;29.48;79.18
32181;BME280;19172;51.504;3.894;2022-08-23T03:03:16;101303.75;;;29.41;78.63
32181;BME280;19172;51.504;3.894;2022-08-23T03:05:44;101303.41;;;29.46;79.04
32181;BME280;19172;51.504;3.894;2022-08-23T03:08:12;101305.16;;;29.47;78.52
32181;BME280;19172;51.504;3.894;2022-08-23T03:10:49;101305.59;;;29.40;78.54
32181;BME280;19172;51.504;3.894;2022-08-23T03:13:19;101307.84;;;29.34;79.14
32181;BME280;19172;51.504;3.894;2022-08-23T03:15:49;101301.88;;;29.29;79.44
32181;BME280;19172;51.504;3.894;2022-08-23T03:18:17;101301.88;;;29.29;80.72
32181;BME280;19172;51.504;3.894;2022-08-23T03:20:45;101304.59;;;29.15;81.83
32181;BME280;19172;51.504;3.894;2022-08-23T03:23:15;101308.66;;;29.22;83.29
32181;BME280;19172;51.504;3.894;2022-08-23T03:25:44;101305.94;;;29.22;83.96
32181;BME280;19172;51.504;3.894;2022-08-23T03:28:25;101302.19;;;29.10;83.62
32181;BME280;19172;51.504;3.894;2022-08-23T03:30:54;101312.91;;;28.72;87.44
32181;BME280;19172;51.504;3.894;2022-08-23T03:33:22;101304.03;;;28.83;87.30
32181;BME280;19172;51.504;3.894;2022-08-23T03:35:50;101312.91;;;28.72;88.84
32181;BME280;19172;51.504;3.894;2022-08-23T03:38:18;101309.94;;;28.89;88.27
32181;BME280;19172;51.504;3.894;2022-08-23T03:40:47;101309.50;;;28.69;88.68
32181;BME280;19172;51.504;3.894;2022-08-23T03:43:19;101312.34;;;28.67;89.59
32181;BME280;19172;51.504;3.894;2022-08-23T03:45:48;101312.63;;;28.77;88.65
32181;BME280;19172;51.504;3.894;2022-08-23T03:48:17;101313.97;;;28.70;87.68
32181;BME280;19172;51.504;3.894;2022-08-23T03:50:45;101314.63;;;28.59;89.40
32181;BME280;19172;51.504;3.894;2022-08-23T03:53:13;101316.91;;;28.67;90.33
32181;BME280;19172;51.504;3.894;2022-08-23T03:55:44;101317.88;;;28.66;89.38
32181;BME280;19172;51.504;3.894;2022-08-23T03:58:16;101326.13;;;28.64;89.43
32181;BME280;19172;51.504;3.894;2022-08-23T04:00:45;101330.31;;;28.70;88.08
32181;BME280;19172;51.504;3.894;2022-08-23T04:03:12;101319.88;;;28.62;88.60
32181;BME280;19172;51.504;3.894;2022-08-23T04:06:03;101328.94;;;28.63;87.92
32181;BME280;19172;51.504;3.894;2022-08-23T04:08:32;101330.88;;;28.47;87.29
32181;BME280;19172;51.504;3.894;2022-08-23T04:11:02;101329.72;;;28.51;86.66
32181;BME280;19172;51.504;3.894;2022-08-23T04:13:30;101335.69;;;28.43;86.80
32181;BME280;19172;51.504;3.894;2022-08-23T04:16:02;101334.91;;;28.27;87.68
32181;BME280;19172;51.504;3.894;2022-08-23T04:18:32;101339.28;;;28.29;88.07
32181;BME280;19172;51.504;3.894;2022-08-23T04:21:07;101339.38;;;28.42;87.69
32181;BME280;19172;51.504;3.894;2022-08-23T04:23:38;101336.25;;;28.34;86.84
32181;BME280;19172;51.504;3.894;2022-08-23T04:26:06;101340.44;;;28.40;87.04
32181;BME280;19172;51.504;3.894;2022-08-23T04:28:35;101334.69;;;28.44;87.50
32181;BME280;19172;51.504;3.894;2022-08-23T04:31:03;101336.13;;;28.50;87.52
32181;BME280;19172;51.504;3.894;2022-08-23T04:33:33;101333.69;;;28.59;87.39
32181;BME280;19172;51.504;3.894;2022-08-23T04:36:02;101337.88;;;28.65;86.47
32181;BME280;19172;51.504;3.894;2022-08-23T04:38:30;101335.69;;;28.71;86.63
32181;BME280;19172;51.504;3.894;2022-08-23T04:41:03;101337.31;;;28.74;85.02
32181;BME280;19172;51.504;3.894;2022-08-23T04:43:53;101334.59;;;28.74;85.40
32181;BME280;19172;51.504;3.894;2022-08-23T04:46:24;101332.34;;;28.80;84.81
32181;BME280;19172;51.504;3.894;2022-08-23T04:48:57;101333.22;;;28.81;84.10
32181;BME280;19172;51.504;3.894;2022-08-23T04:51:26;101334.75;;;28.85;83.57
32181;BME280;19172;51.504;3.894;2022-08-23T04:53:54;101340.38;;;28.82;83.82
32181;BME280;19172;51.504;3.894;2022-08-23T04:56:31;101342.72;;;28.88;84.49
32181;BME280;19172;51.504;3.894;2022-08-23T04:58:59;101347.09;;;28.91;84.23
32181;BME280;19172;51.504;3.894;2022-08-23T05:01:27;101340.38;;;28.96;84.41
32181;BME280;19172;51.504;3.894;2022-08-23T05:03:56;101341.25;;;28.97;83.65
32181;BME280;19172;51.504;3.894;2022-08-23T05:06:27;101334.72;;;28.99;84.64
32181;BME280;19172;51.504;3.894;2022-08-23T05:08:56;101332.88;;;29.00;83.91
32181;BME280;19172;51.504;3.894;2022-08-23T05:11:25;101335.28;;;29.04;83.70
32181;BME280;19172;51.504;3.894;2022-08-23T05:13:52;101337.91;;;29.06;84.10
32181;BME280;19172;51.504;3.894;2022-08-23T05:16:22;101341.19;;;29.11;83.34
32181;BME280;19172;51.504;3.894;2022-08-23T05:18:57;101337.84;;;29.20;82.72
32181;BME280;19172;51.504;3.894;2022-08-23T05:21:25;101351.56;;;29.18;81.26
32181;BME280;19172;51.504;3.894;2022-08-23T05:23:53;101345.84;;;29.23;81.18
32181;BME280;19172;51.504;3.894;2022-08-23T05:26:23;101350.41;;;29.22;80.32
32181;BME280;19172;51.504;3.894;2022-08-23T05:28:51;101350.78;;;29.30;79.42
32181;BME280;19172;51.504;3.894;2022-08-23T05:31:25;101350.22;;;29.25;78.15
32181;BME280;19172;51.504;3.894;2022-08-23T05:33:57;101356.34;;;29.29;77.89
32181;BME280;19172;51.504;3.894;2022-08-23T05:36:42;101358.00;;;29.31;75.94
32181;BME280;19172;51.504;3.894;2022-08-23T05:39:15;101366.16;;;29.31;76.44
32181;BME280;19172;51.504;3.894;2022-08-23T05:41:47;101364.97;;;29.35;76.34
32181;BME280;19172;51.504;3.894;2022-08-23T05:44:14;101368.47;;;29.37;77.06
32181;BME280;19172;51.504;3.894;2022-08-23T05:46:43;101364.78;;;29.38;77.19
32181;BME280;19172;51.504;3.894;2022-08-23T05:49:41;101361.84;;;29.42;76.09
32181;BME280;19172;51.504;3.894;2022-08-23T05:52:12;101366.41;;;29.41;75.82
32181;BME280;19172;51.504;3.894;2022-08-23T05:54:42;101364.75;;;29.78;75.60
32181;BME280;19172;51.504;3.894;2022-08-23T05:57:24;101370.47;;;30.38;72.51
32181;BME280;19172;51.504;3.894;2022-08-23T05:59:52;101368.69;;;30.87;67.51
32181;BME280;19172;51.504;3.894;2022-08-23T06:02:20;101364.34;;;31.21;64.61
32181;BME280;19172;51.504;3.894;2022-08-23T06:04:48;101361.91;;;31.53;63.13
32181;BME280;19172;51.504;3.894;2022-08-23T06:07:18;101361.59;;;31.69;62.83
32181;BME280;19172;51.504;3.894;2022-08-23T06:09:45;101365.34;;;31.68;62.13
32181;BME280;19172;51.504;3.894;2022-08-23T06:12:13;101360.47;;;31.60;62.09
32181;BME280;19172;51.504;3.894;2022-08-23T06:14:41;101373.53;;;32.03;62.14
32181;BME280;19172;51.504;3.894;2022-08-23T06:17:10;101366.88;;;32.40;60.19
32181;BME280;19172;51.504;3.894;2022-08-23T06:19:38;101371.53;;;32.62;59.30
32181;BME280;19172;51.504;3.894;2022-08-23T06:22:06;101373.16;;;32.86;58.53
32181;BME280;19172;51.504;3.894;2022-08-23T06:24:39;101369.72;;;33.16;57.88
32181;BME280;19172;51.504;3.894;2022-08-23T06:27:15;101371.94;;;33.33;55.54
32181;BME280;19172;51.504;3.894;2022-08-23T06:29:43;101378.59;;;32.97;55.71
32181;BME280;19172;51.504;3.894;2022-08-23T06:32:32;101378.09;;;32.37;56.52
32181;BME280;19172;51.504;3.894;2022-08-23T06:35:24;101380.94;;;32.24;57.42
32181;BME280;19172;51.504;3.894;2022-08-23T06:38:11;101374.28;;;32.73;58.47
32181;BME280;19172;51.504;3.894;2022-08-23T06:41:10;101383.69;;;33.02;57.89
32181;BME280;19172;51.504;3.894;2022-08-23T06:43:56;101379.88;;;32.82;56.19
32181;BME280;19172;51.504;3.894;2022-08-23T06:46:49;101385.94;;;32.53;55.52
32181;BME280;19172;51.504;3.894;2022-08-23T06:49:17;101385.91;;;32.30;56.89
32181;BME280;19172;51.504;3.894;2022-08-23T06:51:49;101385.38;;;31.79;56.09
32181;BME280;19172;51.504;3.894;2022-08-23T06:54:23;101382.38;;;31.47;57.34
32181;BME280;19172;51.504;3.894;2022-08-23T06:57:01;101388.81;;;31.23;59.31
32181;BME280;19172;51.504;3.894;2022-08-23T06:59:40;101379.75;;;31.22;61.51
32181;BME280;19172;51.504;3.894;2022-08-23T07:02:35;101384.75;;;31.28;60.76
32181;BME280;19172;51.504;3.894;2022-08-23T07:05:21;101383.41;;;31.34;60.22
32181;BME280;19172;51.504;3.894;2022-08-23T07:07:58;101385.41;;;31.32;60.27
32181;BME280;19172;51.504;3.894;2022-08-23T07:10:26;101389.66;;;31.36;60.87
32181;BME280;19172;51.504;3.894;2022-08-23T07:12:54;101389.16;;;31.18;60.56
32181;BME280;19172;51.504;3.894;2022-08-23T07:15:22;101385.28;;;31.33;61.55
32181;BME280;19172;51.504;3.894;2022-08-23T07:17:50;101382.16;;;31.51;62.15
32181;BME280;19172;51.504;3.894;2022-08-23T07:20:18;101387.63;;;31.51;61.41
32181;BME280;19172;51.504;3.894;2022-08-23T07:22:46;101391.00;;;31.78;61.13
32181;BME280;19172;51.504;3.894;2022-08-23T07:25:13;101392.28;;;31.96;60.63
32181;BME280;19172;51.504;3.894;2022-08-23T07:27:44;101397.22;;;31.91;61.44
32181;BME280;19172;51.504;3.894;2022-08-23T07:30:15;101411.38;;;32.20;60.06
32181;BME280;19172;51.504;3.894;2022-08-23T07:32:44;101394.72;;;32.12;59.13
32181;BME280;19172;51.504;3.894;2022-08-23T07:35:22;101397.75;;;32.31;58.42
32181;BME280;19172;51.504;3.894;2022-08-23T07:37:55;101407.63;;;32.67;59.66
32181;BME280;19172;51.504;3.894;2022-08-23T07:40:25;101401.50;;;32.74;58.09
32181;BME280;19172;51.504;3.894;2022-08-23T07:42:57;101407.47;;;33.01;57.63
32181;BME280;19172;51.504;3.894;2022-08-23T07:45:25;101408.50;;;33.12;55.84
32181;BME280;19172;51.504;3.894;2022-08-23T07:47:56;101413.91;;;32.34;55.92
32181;BME280;19172;51.504;3.894;2022-08-23T07:50:27;101411.13;;;32.80;56.29
32181;BME280;19172;51.504;3.894;2022-08-23T07:52:58;101415.69;;;33.01;54.63
32181;BME280;19172;51.504;3.894;2022-08-23T07:55:30;101415.06;;;32.87;53.32
32181;BME280;19172;51.504;3.894;2022-08-23T07:58:27;101415.81;;;32.44;55.90
32181;BME280;19172;51.504;3.894;2022-08-23T08:03:49;101423.56;;;32.73;53.32
32181;BME280;19172;51.504;3.894;2022-08-23T08:06:33;101426.16;;;33.19;53.53
32181;BME280;19172;51.504;3.894;2022-08-23T08:09:02;101427.78;;;33.10;53.06
32181;BME280;19172;51.504;3.894;2022-08-23T08:11:32;101428.66;;;33.11;52.56
32181;BME280;19172;51.504;3.894;2022-08-23T08:14:07;101428.88;;;33.30;53.03
32181;BME280;19172;51.504;3.894;2022-08-23T08:16:43;101427.63;;;33.34;52.93
32181;BME280;19172;51.504;3.894;2022-08-23T08:19:17;101428.78;;;33.09;52.89
32181;BME280;19172;51.504;3.894;2022-08-23T08:22:09;101430.03;;;32.72;53.19
32181;BME280;19172;51.504;3.894;2022-08-23T08:24:49;101433.16;;;32.21;54.10
32181;BME280;19172;51.504;3.894;2022-08-23T08:27:17;101425.00;;;32.43;55.34
32181;BME280;19172;51.504;3.894;2022-08-23T08:29:45;101427.81;;;32.77;54.97
32181;BME280;19172;51.504;3.894;2022-08-23T08:32:13;101430.91;;;32.94;54.14
32181;BME280;19172;51.504;3.894;2022-08-23T08:34:41;101424.06;;;32.89;54.47
32181;BME280;19172;51.504;3.894;2022-08-23T08:37:10;101426.44;;;32.82;54.81
32181;BME280;19172;51.504;3.894;2022-08-23T08:39:38;101433.78;;;31.90;54.97
32181;BME280;19172;51.504;3.894;2022-08-23T08:43:02;101426.06;;;32.76;55.48
32181;BME280;19172;51.504;3.894;2022-08-23T08:45:57;101436.00;;;32.99;55.15
32181;BME280;19172;51.504;3.894;2022-08-23T08:48:34;101441.72;;;33.40;53.57
32181;BME280;19172;51.504;3.894;2022-08-23T08:51:19;101432.72;;;33.38;53.06
32181;BME280;19172;51.504;3.894;2022-08-23T08:53:55;101434.25;;;33.09;53.04
32181;BME280;19172;51.504;3.894;2022-08-23T08:56:38;101434.50;;;32.84;54.50
32181;BME280;19172;51.504;3.894;2022-08-23T08:59:46;101435.41;;;32.95;53.73
32181;BME280;19172;51.504;3.894;2022-08-23T09:02:20;101440.38;;;33.13;53.36
32181;BME280;19172;51.504;3.894;2022-08-23T09:05:05;101442.13;;;33.25;52.52
32181;BME280;19172;51.504;3.894;2022-08-23T09:07:53;101444.88;;;33.14;52.26
32181;BME280;19172;51.504;3.894;2022-08-23T09:10:49;101443.72;;;33.27;51.42
32181;BME280;19172;51.504;3.894;2022-08-23T09:18:50;101453.00;;;33.69;50.93
32181;BME280;19172;51.504;3.894;2022-08-23T09:21:18;101458.47;;;33.69;50.76
32181;BME280;19172;51.504;3.894;2022-08-23T09:23:49;101451.69;;;33.30;51.60
32181;BME280;19172;51.504;3.894;2022-08-23T09:26:36;101457.31;;;32.73;51.51
32181;BME280;19172;51.504;3.894;2022-08-23T09:29:16;101454.44;;;32.97;52.20
32181;BME280;19172;51.504;3.894;2022-08-23T09:31:53;101451.38;;;33.56;51.56
32181;BME280;19172;51.504;3.894;2022-08-23T09:39:51;101447.72;;;33.77;50.14
32181;BME280;19172;51.504;3.894;2022-08-23T09:42:35;101449.72;;;33.75;50.05
32181;BME280;19172;51.504;3.894;2022-08-23T09:45:33;101428.41;;;33.68;50.60
32181;BME280;19172;51.504;3.894;2022-08-23T09:48:05;101436.31;;;33.61;51.16
32181;BME280;19172;51.504;3.894;2022-08-23T09:50:50;101441.34;;;33.77;50.40
32181;BME280;19172;51.504;3.894;2022-08-23T09:53:25;101449.13;;;33.72;50.14
32181;BME280;19172;51.504;3.894;2022-08-23T09:56:12;101449.44;;;33.35;50.85
32181;BME280;19172;51.504;3.894;2022-08-23T09:58:45;101448.44;;;33.03;51.48
32181;BME280;19172;51.504;3.894;2022-08-23T10:01:26;101448.63;;;33.56;51.70
32181;BME280;19172;51.504;3.894;2022-08-23T10:04:15;101439.94;;;33.50;51.68
32181;BME280;19172;51.504;3.894;2022-08-23T10:06:46;101441.91;;;33.48;52.35
32181;BME280;19172;51.504;3.894;2022-08-23T10:09:32;101440.22;;;33.03;52.66
32181;BME280;19172;51.504;3.894;2022-08-23T10:12:04;101436.22;;;33.83;52.68
32181;BME280;19172;51.504;3.894;2022-08-23T10:14:33;101443.91;;;34.21;50.61
32181;BME280;19172;51.504;3.894;2022-08-23T10:22:45;101431.84;;;34.13;49.72
32181;BME280;19172;51.504;3.894;2022-08-23T10:25:41;101429.44;;;34.61;49.65
32181;BME280;19172;51.504;3.894;2022-08-23T10:34:16;101438.34;;;33.26;51.45
32181;BME280;19172;51.504;3.894;2022-08-23T10:40:21;101442.84;;;34.13;50.21
32181;BME280;19172;51.504;3.894;2022-08-23T10:43:16;101437.19;;;33.62;52.39
32181;BME280;19172;51.504;3.894;2022-08-23T10:45:56;101445.81;;;34.10;52.03
32181;BME280;19172;51.504;3.894;2022-08-23T10:48:37;101434.22;;;34.17;52.16
32181;BME280;19172;51.504;3.894;2022-08-23T10:51:19;101434.03;;;34.81;51.42
32181;BME280;19172;51.504;3.894;2022-08-23T10:53:58;101435.31;;;34.56;50.43
32181;BME280;19172;51.504;3.894;2022-08-23T10:56:29;101440.38;;;34.30;50.87
32181;BME280;19172;51.504;3.894;2022-08-23T11:02:26;101441.38;;;34.29;50.66
32181;BME280;19172;51.504;3.894;2022-08-23T11:05:05;101437.13;;;34.67;51.46
32181;BME280;19172;51.504;3.894;2022-08-23T11:07:38;101438.53;;;34.40;51.20
32181;BME280;19172;51.504;3.894;2022-08-23T11:15:43;101451.41;;;34.08;52.88
32181;BME280;19172;51.504;3.894;2022-08-23T11:18:39;101440.97;;;34.02;52.39
32181;BME280;19172;51.504;3.894;2022-08-23T11:32:03;101457.19;;;34.88;51.35
32181;BME280;19172;51.504;3.894;2022-08-23T11:48:35;101476.13;;;33.87;53.89
32181;BME280;19172;51.504;3.894;2022-08-23T11:53:57;101475.03;;;33.79;56.23
32181;BME280;19172;51.504;3.894;2022-08-23T12:01:47;101474.72;;;33.93;56.96
32181;BME280;19172;51.504;3.894;2022-08-23T12:04:37;101475.25;;;34.19;56.35
32181;BME280;19172;51.504;3.894;2022-08-23T12:07:08;101476.72;;;34.23;55.66
32181;BME280;19172;51.504;3.894;2022-08-23T12:12:24;101461.81;;;34.04;55.66
32181;BME280;19172;51.504;3.894;2022-08-23T12:14:58;101472.13;;;34.23;56.34
32181;BME280;19172;51.504;3.894;2022-08-23T12:25:25;101469.22;;;34.25;57.20
32181;BME280;19172;51.504;3.894;2022-08-23T12:30:49;101475.81;;;33.47;57.43
32181;BME280;19172;51.504;3.894;2022-08-23T12:36:09;101471.09;;;33.38;60.61
32181;BME280;19172;51.504;3.894;2022-08-23T12:39:02;101459.09;;;34.04;60.29
32181;BME280;19172;51.504;3.894;2022-08-23T12:41:50;101468.25;;;34.15;59.49
32181;BME280;19172;51.504;3.894;2022-08-23T12:44:22;101470.97;;;34.26;59.47
32181;BME280;19172;51.504;3.894;2022-08-23T12:46:51;101458.91;;;34.17;60.78
32181;BME280;19172;51.504;3.894;2022-08-23T12:49:31;101464.34;;;33.53;61.41
32181;BME280;19172;51.504;3.894;2022-08-23T12:52:07;101457.59;;;32.46;64.50
32181;BME280;19172;51.504;3.894;2022-08-23T12:54:44;101462.16;;;32.81;64.50
32181;BME280;19172;51.504;3.894;2022-08-23T12:57:18;101457.66;;;32.91;64.36
32181;BME280;19172;51.504;3.894;2022-08-23T13:00:09;101464.16;;;33.34;61.95
32181;BME280;19172;51.504;3.894;2022-08-23T13:03:05;101465.50;;;33.83;60.97
32181;BME280;19172;51.504;3.894;2022-08-23T13:11:08;101461.72;;;34.47;58.42
32181;BME280;19172;51.504;3.894;2022-08-23T13:13:41;101462.72;;;34.46;56.54
32181;BME280;19172;51.504;3.894;2022-08-23T13:16:39;101457.34;;;34.66;56.82
32181;BME280;19172;51.504;3.894;2022-08-23T13:19:27;101453.00;;;34.63;55.99
32181;BME280;19172;51.504;3.894;2022-08-23T13:24:42;101453.78;;;35.05;56.36
32181;BME280;19172;51.504;3.894;2022-08-23T13:27:23;101445.59;;;35.15;55.89
32181;BME280;19172;51.504;3.894;2022-08-23T13:30:37;101445.75;;;35.13;54.49
32181;BME280;19172;51.504;3.894;2022-08-23T13:32:49;101438.88;;;34.68;54.26
32181;BME280;19172;51.504;3.894;2022-08-23T13:35:36;101436.94;;;34.89;54.41
32181;BME280;19172;51.504;3.894;2022-08-23T13:40:59;101429.00;;;34.95;54.13
32181;BME280;19172;51.504;3.894;2022-08-23T13:43:29;101432.03;;;35.13;54.29
32181;BME280;19172;51.504;3.894;2022-08-23T13:46:13;101434.94;;;34.91;53.70
32181;BME280;19172;51.504;3.894;2022-08-23T13:49:28;101436.81;;;34.60;52.64
32181;BME280;19172;51.504;3.894;2022-08-23T13:54:47;101440.19;;;35.03;52.39
32181;BME280;19172;51.504;3.894;2022-08-23T13:57:20;101443.63;;;34.24;50.78
32181;BME280;19172;51.504;3.894;2022-08-23T13:59:53;101441.81;;;34.76;51.54
32181;BME280;19172;51.504;3.894;2022-08-23T14:02:23;101443.34;;;34.99;51.75
32181;BME280;19172;51.504;3.894;2022-08-23T14:04:50;101443.44;;;34.88;51.28
32181;BME280;19172;51.504;3.894;2022-08-23T14:07:18;101440.97;;;34.85;51.44
32181;BME280;19172;51.504;3.894;2022-08-23T14:09:46;101446.69;;;35.02;50.55
32181;BME280;19172;51.504;3.894;2022-08-23T14:12:21;101444.88;;;34.82;49.87
32181;BME280;19172;51.504;3.894;2022-08-23T14:14:50;101446.66;;;33.89;52.24
32181;BME280;19172;51.504;3.894;2022-08-23T14:17:18;101445.16;;;34.59;53.11
32181;BME280;19172;51.504;3.894;2022-08-23T14:19:47;101438.75;;;34.48;52.10
32181;BME280;19172;51.504;3.894;2022-08-23T14:22:35;101450.28;;;34.42;53.02
32181;BME280;19172;51.504;3.894;2022-08-23T14:25:04;101442.06;;;34.73;51.47
32181;BME280;19172;51.504;3.894;2022-08-23T14:27:33;101436.72;;;34.50;51.20
32181;BME280;19172;51.504;3.894;2022-08-23T14:30:02;101439.44;;;34.20;53.03
32181;BME280;19172;51.504;3.894;2022-08-23T14:32:32;101446.22;;;34.46;52.99
32181;BME280;19172;51.504;3.894;2022-08-23T14:35:00;101443.78;;;34.64;52.37
32181;BME280;19172;51.504;3.894;2022-08-23T14:37:27;101441.16;;;33.89;51.44
32181;BME280;19172;51.504;3.894;2022-08-23T14:40:16;101450.28;;;34.42;53.80
32181;BME280;19172;51.504;3.894;2022-08-23T14:42:45;101450.09;;;34.85;51.82
32181;BME280;19172;51.504;3.894;2022-08-23T14:45:15;101447.41;;;34.65;51.63
32181;BME280;19172;51.504;3.894;2022-08-23T14:47:43;101449.06;;;34.35;51.64
32181;BME280;19172;51.504;3.894;2022-08-23T14:50:13;101448.34;;;34.33;53.08
32181;BME280;19172;51.504;3.894;2022-08-23T14:52:44;101444.75;;;34.84;52.20
32181;BME280;19172;51.504;3.894;2022-08-23T14:55:13;101438.06;;;34.15;57.06
32181;BME280;19172;51.504;3.894;2022-08-23T14:57:42;101442.47;;;34.06;62.59
32181;BME280;19172;51.504;3.894;2022-08-23T15:00:10;101446.31;;;33.07;61.85
32181;BME280;19172;51.504;3.894;2022-08-23T15:02:43;101440.84;;;33.40;64.70
32181;BME280;19172;51.504;3.894;2022-08-23T15:05:13;101443.63;;;33.18;70.11
32181;BME280;19172;51.504;3.894;2022-08-23T15:07:42;101440.97;;;32.94;70.79
32181;BME280;19172;51.504;3.894;2022-08-23T15:10:11;101435.38;;;32.84;72.59